Time,TemperatureF,DewpointF,PressureIn,WindDirection,WindDirectionDegrees,WindSpeedMPH,WindSpeedGustMPH,Humidity,HourlyPrecipIn,Conditions,Clouds,dailyrainin,SoftwareType,DateUTC
2013-04-06 00:02:00,24.0,19.0,-100.00,West,275,14.0,26.0,81,-99.99,,,-99.99,,2013-04-06 06:02:00,
2013-04-06 00:12:00,24.0,19.0,-100.00,West,275,14.0,26.0,81,-99.99,,,-99.99,,2013-04-06 06:12:00,
2013-04-06 00:22:00,24.0,19.0,-100.00,WNW,287,16.0,31.0,81,-99.99,,,-99.99,,2013-04-06 06:22:00,
2013-04-06 00:32:00,24.0,19.0,-100.00,WNW,291,14.0,29.0,80,-99.99,,,-99.99,,2013-04-06 06:32:00,
2013-04-06 00:42:00,24.0,19.0,-100.00,WNW,292,16.0,30.0,81,-99.99,,,-99.99,,2013-04-06 06:42:00,
2013-04-06 00:52:00,24.0,19.0,-100.00,WNW,292,16.0,30.0,81,-99.99,,,-99.99,,2013-04-06 06:52:00,
2013-04-06 01:02:00,24.0,19.0,-100.00,WNW,294,18.0,30.0,80,-99.99,,,-99.99,,2013-04-06 07:02:00,
2013-04-06 01:12:00,24.0,19.0,-100.00,WNW,294,18.0,30.0,80,-99.99,,,-99.99,,2013-04-06 07:12:00,
2013-04-06 01:22:00,24.0,19.0,-100.00,WNW,302,21.0,33.0,80,-99.99,,,-99.99,,2013-04-06 07:22:00,
2013-04-06 01:32:00,24.0,18.0,-100.00,NW,308,21.0,27.0,79,-99.99,,,-99.99,,2013-04-06 07:32:00,
2013-04-06 01:42:00,24.0,18.0,-100.00,NW,308,21.0,27.0,79,-99.99,,,-99.99,,2013-04-06 07:42:00,
2013-04-06 01:53:00,24.0,19.0,-100.00,NW,311,19.0,27.0,80,-99.99,,,-99.99,,2013-04-06 07:53:00,
2013-04-06 02:02:00,24.0,19.0,-100.00,NW,304,21.0,31.0,80,-99.99,,,-99.99,,2013-04-06 08:02:00,
2013-04-06 02:12:00,24.0,19.0,-100.00,NW,304,21.0,31.0,80,-99.99,,,-99.99,,2013-04-06 08:12:00,
2013-04-06 02:22:00,24.0,19.0,-100.00,NW,304,19.0,28.0,80,-99.99,,,-99.99,,2013-04-06 08:22:00,
2013-04-06 02:32:00,24.0,18.0,-100.00,NW,310,18.0,26.0,79,-99.99,,,-99.99,,2013-04-06 08:32:00,
2013-04-06 02:42:00,23.0,17.0,-100.00,NW,312,14.0,20.0,78,-99.99,,,-99.99,,2013-04-06 08:42:00,
2013-04-06 02:52:00,23.0,17.0,-100.00,NW,312,14.0,20.0,78,-99.99,,,-99.99,,2013-04-06 08:52:00,
2013-04-06 03:02:00,23.0,17.0,-100.00,NW,306,12.0,21.0,77,-99.99,,,-99.99,,2013-04-06 09:02:00,
2013-04-06 03:12:00,23.0,17.0,-100.00,NW,306,12.0,21.0,77,-99.99,,,-99.99,,2013-04-06 09:12:00,
2013-04-06 03:22:00,23.0,17.0,-100.00,WNW,299,14.0,21.0,77,-99.99,,,-99.99,,2013-04-06 09:22:00,
2013-04-06 03:32:00,23.0,17.0,-100.00,WNW,301,15.0,19.0,78,-99.99,,,-99.99,,2013-04-06 09:32:00,
2013-04-06 03:42:00,23.0,17.0,-100.00,WNW,301,15.0,19.0,78,-99.99,,,-99.99,,2013-04-06 09:42:00,
2013-04-06 03:53:00,23.0,17.0,-100.00,WNW,295,13.0,19.0,76,-99.99,,,-99.99,,2013-04-06 09:53:00,
2013-04-06 04:02:00,23.0,16.0,-100.00,WNW,295,12.0,20.0,75,-99.99,,,-99.99,,2013-04-06 10:02:00,
2013-04-06 04:12:00,23.0,16.0,-100.00,WNW,295,12.0,20.0,75,-99.99,,,-99.99,,2013-04-06 10:12:00,
2013-04-06 04:22:00,23.0,17.0,-100.00,NW,318,11.0,17.0,76,-99.99,,,-99.99,,2013-04-06 10:22:00,
2013-04-06 04:32:00,23.0,17.0,-100.00,NW,306,10.0,17.0,78,-99.99,,,-99.99,,2013-04-06 10:32:00,
2013-04-06 04:42:00,23.0,17.0,-100.00,NW,304,13.0,20.0,78,-99.99,,,-99.99,,2013-04-06 10:42:00,
2013-04-06 04:53:00,23.0,17.0,-100.00,NW,304,13.0,20.0,78,-99.99,,,-99.99,,2013-04-06 10:53:00,
2013-04-06 05:02:00,23.0,17.0,-100.00,NW,304,9.0,18.0,78,-99.99,,,-99.99,,2013-04-06 11:02:00,
2013-04-06 05:12:00,23.0,17.0,-100.00,NW,304,9.0,18.0,78,-99.99,,,-99.99,,2013-04-06 11:12:00,
2013-04-06 05:22:00,22.0,16.0,-100.00,West,262,8.0,16.0,79,-99.99,,,-99.99,,2013-04-06 11:22:00,
2013-04-06 05:32:00,22.0,17.0,-100.00,West,268,10.0,20.0,81,-99.99,,,-99.99,,2013-04-06 11:32:00,
2013-04-06 05:42:00,22.0,17.0,-100.00,West,268,10.0,20.0,81,-99.99,,,-99.99,,2013-04-06 11:42:00,
2013-04-06 05:52:00,22.0,17.0,-100.00,West,265,8.0,14.0,80,-99.99,,,-99.99,,2013-04-06 11:52:00,
2013-04-06 06:01:00,22.0,17.0,-100.00,West,266,10.0,20.0,81,-99.99,,,-99.99,,2013-04-06 12:01:00,
2013-04-06 06:12:00,22.0,17.0,-100.00,West,277,9.0,15.0,81,-99.99,,,-99.99,,2013-04-06 12:12:00,
2013-04-06 06:22:00,22.0,17.0,-100.00,West,277,9.0,15.0,81,-99.99,,,-99.99,,2013-04-06 12:22:00,
2013-04-06 06:32:00,22.0,17.0,-100.00,West,279,8.0,16.0,81,-99.99,,,-99.99,,2013-04-06 12:32:00,
2013-04-06 06:42:00,22.0,17.0,-100.00,West,279,8.0,16.0,81,-99.99,,,-99.99,,2013-04-06 12:42:00,
2013-04-06 06:52:00,22.0,17.0,-100.00,West,275,8.0,17.0,80,-99.99,,,-99.99,,2013-04-06 12:52:00,
2013-04-06 07:02:00,22.0,16.0,-100.00,West,275,9.0,18.0,79,-99.99,,,-99.99,,2013-04-06 13:02:00,
2013-04-06 07:12:00,22.0,16.0,-100.00,West,275,9.0,18.0,79,-99.99,,,-99.99,,2013-04-06 13:12:00,
2013-04-06 07:23:00,22.0,16.0,-100.00,WNW,288,8.0,19.0,79,-99.99,,,-99.99,,2013-04-06 13:23:00,
2013-04-06 07:32:00,22.0,16.0,-100.00,West,264,8.0,20.0,78,-99.99,,,-99.99,,2013-04-06 13:32:00,
2013-04-06 07:42:00,22.0,16.0,-100.00,West,264,8.0,20.0,78,-99.99,,,-99.99,,2013-04-06 13:42:00,
2013-04-06 07:53:00,23.0,17.0,-100.00,West,273,7.0,18.0,78,-99.99,,,-99.99,,2013-04-06 13:53:00,
2013-04-06 08:03:00,23.0,18.0,-100.00,WNW,297,7.0,14.0,80,-99.99,,,-99.99,,2013-04-06 14:03:00,
2013-04-06 08:12:00,23.0,18.0,-100.00,WNW,297,7.0,14.0,80,-99.99,,,-99.99,,2013-04-06 14:12:00,
2013-04-06 08:22:00,23.0,18.0,-100.00,West,276,6.0,11.0,81,-99.99,,,-99.99,,2013-04-06 14:22:00,
2013-04-06 08:32:00,23.0,18.0,-100.00,West,281,7.0,15.0,81,-99.99,,,-99.99,,2013-04-06 14:32:00,
2013-04-06 08:42:00,23.0,18.0,-100.00,West,281,7.0,15.0,81,-99.99,,,-99.99,,2013-04-06 14:42:00,
2013-04-06 08:53:00,23.0,18.0,-100.00,West,281,7.0,15.0,81,-99.99,,,-99.99,,2013-04-06 14:53:00,
2013-04-06 09:02:00,24.0,18.0,-100.00,WNW,283,6.0,17.0,79,-99.99,,,-99.99,,2013-04-06 15:02:00,
2013-04-06 09:12:00,25.0,19.0,-100.00,West,272,7.0,17.0,79,-99.99,,,-99.99,,2013-04-06 15:12:00,
2013-04-06 09:22:00,25.0,19.0,-100.00,West,272,7.0,17.0,79,-99.99,,,-99.99,,2013-04-06 15:22:00,
2013-04-06 09:33:00,25.0,20.0,-100.00,WNW,290,8.0,14.0,81,-99.99,,,-99.99,,2013-04-06 15:33:00,
2013-04-06 09:42:00,25.0,20.0,-100.00,WNW,290,8.0,14.0,81,-99.99,,,-99.99,,2013-04-06 15:42:00,
2013-04-06 09:53:00,25.0,21.0,-100.00,West,270,6.0,14.0,83,-99.99,,,-99.99,,2013-04-06 15:53:00,
2013-04-06 10:04:00,25.0,21.0,-100.00,West,268,7.0,13.0,85,-99.99,,,-99.99,,2013-04-06 16:04:00,
2013-04-06 10:17:00,26.0,22.0,-100.00,West,272,7.0,14.0,84,-99.99,,,-99.99,,2013-04-06 16:17:00,
2013-04-06 10:23:00,26.0,22.0,-100.00,West,272,7.0,14.0,84,-99.99,,,-99.99,,2013-04-06 16:23:00,
2013-04-06 10:32:00,26.0,22.0,-100.00,West,266,7.0,15.0,84,-99.99,,,-99.99,,2013-04-06 16:32:00,
2013-04-06 10:42:00,27.0,23.0,-100.00,West,261,7.0,17.0,83,-99.99,,,-99.99,,2013-04-06 16:42:00,
2013-04-06 10:53:00,27.0,23.0,-100.00,West,261,7.0,17.0,83,-99.99,,,-99.99,,2013-04-06 16:53:00,
2013-04-06 11:02:00,27.0,23.0,-100.00,West,261,6.0,19.0,85,-99.99,,,-99.99,,2013-04-06 17:02:00,
2013-04-06 11:12:00,28.0,23.0,-100.00,WSW,256,6.0,20.0,82,-99.99,,,-99.99,,2013-04-06 17:12:00,
2013-04-06 11:22:00,28.0,23.0,-100.00,WSW,256,6.0,20.0,82,-99.99,,,-99.99,,2013-04-06 17:22:00,
2013-04-06 11:32:00,30.0,23.0,-100.00,WSW,257,6.0,17.0,76,-99.99,,,-99.99,,2013-04-06 17:32:00,
2013-04-06 11:42:00,30.0,23.0,-100.00,WSW,257,6.0,17.0,76,-99.99,,,-99.99,,2013-04-06 17:42:00,
2013-04-06 11:52:00,31.0,24.0,-100.00,WSW,246,6.0,15.0,74,-99.99,,,-99.99,,2013-04-06 17:52:00,
2013-04-06 12:02:00,31.0,24.0,-100.00,SW,224,5.0,18.0,76,-99.99,,,-99.99,,2013-04-06 18:02:00,
2013-04-06 12:12:00,31.0,24.0,-100.00,SW,224,5.0,18.0,76,-99.99,,,-99.99,,2013-04-06 18:12:00,
2013-04-06 12:23:00,28.0,24.0,-100.00,West,273,6.0,17.0,83,-99.99,,,-99.99,,2013-04-06 18:23:00,
2013-04-06 12:32:00,28.0,24.0,-100.00,WSW,248,6.0,17.0,84,-99.99,,,-99.99,,2013-04-06 18:32:00,
2013-04-06 12:42:00,28.0,24.0,-100.00,WSW,248,6.0,17.0,84,-99.99,,,-99.99,,2013-04-06 18:42:00,
2013-04-06 12:52:00,30.0,25.0,-100.00,WSW,258,4.0,12.0,83,-99.99,,,-99.99,,2013-04-06 18:52:00,
2013-04-06 13:02:00,30.0,24.0,-100.00,WSW,238,5.0,12.0,79,-99.99,,,-99.99,,2013-04-06 19:02:00,
2013-04-06 13:12:00,30.0,24.0,-100.00,WSW,238,5.0,12.0,79,-99.99,,,-99.99,,2013-04-06 19:12:00,
2013-04-06 13:22:00,31.0,25.0,-100.00,SW,234,6.0,16.0,77,-99.99,,,-99.99,,2013-04-06 19:22:00,
2013-04-06 13:32:00,32.0,26.0,-100.00,SW,231,5.0,15.0,77,-99.99,,,-99.99,,2013-04-06 19:32:00,
2013-04-06 13:42:00,32.0,26.0,-100.00,SW,231,5.0,15.0,77,-99.99,,,-99.99,,2013-04-06 19:42:00,
2013-04-06 13:53:00,31.0,26.0,-100.00,SW,217,7.0,17.0,81,-99.99,,,-99.99,,2013-04-06 19:53:00,
2013-04-06 14:02:00,31.0,25.0,-100.00,SW,233,8.0,22.0,79,-99.99,,,-99.99,,2013-04-06 20:02:00,
2013-04-06 14:12:00,31.0,25.0,-100.00,SW,233,8.0,22.0,79,-99.99,,,-99.99,,2013-04-06 20:12:00,
2013-04-06 14:22:00,31.0,24.0,-100.00,West,263,8.0,24.0,76,-99.99,,,-99.99,,2013-04-06 20:22:00,
2013-04-06 14:32:00,31.0,24.0,-100.00,West,263,8.0,24.0,76,-99.99,,,-99.99,,2013-04-06 20:32:00,
2013-04-06 14:42:00,31.0,24.0,-100.00,WNW,288,7.0,19.0,76,-99.99,,,-99.99,,2013-04-06 20:42:00,
2013-04-06 14:52:00,31.0,24.0,-100.00,WNW,288,7.0,19.0,76,-99.99,,,-99.99,,2013-04-06 20:52:00,
2013-04-06 15:02:00,30.0,24.0,-100.00,WNW,284,9.0,20.0,77,-99.99,,,-99.99,,2013-04-06 21:02:00,
2013-04-06 15:12:00,30.0,24.0,-100.00,WNW,284,9.0,20.0,77,-99.99,,,-99.99,,2013-04-06 21:12:00,
2013-04-06 15:22:00,30.0,24.0,-100.00,WNW,284,9.0,20.0,77,-99.99,,,-99.99,,2013-04-06 21:22:00,
2013-04-06 15:33:00,29.0,24.0,-100.00,West,271,12.0,26.0,80,-99.99,,,-99.99,,2013-04-06 21:33:00,
2013-04-06 15:43:00,30.0,24.0,-100.00,NW,305,11.0,22.0,79,-99.99,,,-99.99,,2013-04-06 21:43:00,
2013-04-06 15:53:00,30.0,24.0,-100.00,NW,305,11.0,22.0,79,-99.99,,,-99.99,,2013-04-06 21:53:00,
2013-04-06 16:02:00,29.0,24.0,-100.00,NW,306,13.0,22.0,81,-99.99,,,-99.99,,2013-04-06 22:02:00,
2013-04-06 16:13:00,29.0,24.0,-100.00,NW,306,13.0,22.0,81,-99.99,,,-99.99,,2013-04-06 22:13:00,
2013-04-06 16:22:00,29.0,25.0,-100.00,NW,305,14.0,27.0,83,-99.99,,,-99.99,,2013-04-06 22:22:00,
2013-04-06 16:33:00,28.0,24.0,-100.00,NW,306,17.0,30.0,83,-99.99,,,-99.99,,2013-04-06 22:33:00,
2013-04-06 16:43:00,28.0,24.0,-100.00,NW,306,17.0,30.0,83,-99.99,,,-99.99,,2013-04-06 22:43:00,
2013-04-06 16:53:00,27.0,23.0,-100.00,WNW,296,14.0,38.0,85,-99.99,,,-99.99,,2013-04-06 22:53:00,
2013-04-06 17:02:00,28.0,24.0,-100.00,NW,305,19.0,33.0,83,-99.99,,,-99.99,,2013-04-06 23:02:00,
2013-04-06 17:13:00,28.0,24.0,-100.00,NW,305,19.0,33.0,83,-99.99,,,-99.99,,2013-04-06 23:13:00,
2013-04-06 17:22:00,28.0,24.0,-100.00,NW,306,16.0,34.0,83,-99.99,,,-99.99,,2013-04-06 23:22:00,
2013-04-06 17:33:00,28.0,24.0,-100.00,WNW,296,20.0,39.0,83,-99.99,,,-99.99,,2013-04-06 23:33:00,
2013-04-06 17:42:00,28.0,24.0,-100.00,WNW,296,20.0,39.0,83,-99.99,,,-99.99,,2013-04-06 23:42:00,
2013-04-06 17:53:00,28.0,24.0,-100.00,NW,305,23.0,42.0,85,-99.99,,,-99.99,,2013-04-06 23:53:00,
2013-04-06 18:02:00,28.0,24.0,-100.00,NW,314,23.0,42.0,85,-99.99,,,-99.99,,2013-04-07 00:02:00,
2013-04-06 18:12:00,28.0,24.0,-100.00,NW,314,23.0,42.0,85,-99.99,,,-99.99,,2013-04-07 00:12:00,
2013-04-06 18:22:00,27.0,23.0,-100.00,NW,313,24.0,43.0,84,-99.99,,,-99.99,,2013-04-07 00:22:00,
2013-04-06 18:32:00,27.0,23.0,-100.00,NW,313,24.0,43.0,84,-99.99,,,-99.99,,2013-04-07 00:32:00,
2013-04-06 18:42:00,27.0,23.0,-100.00,NW,313,24.0,43.0,84,-99.99,,,-99.99,,2013-04-07 00:42:00,
2013-04-06 18:53:00,27.0,22.0,-100.00,NW,310,18.0,41.0,82,-99.99,,,-99.99,,2013-04-07 00:53:00,
2013-04-06 19:02:00,27.0,22.0,-100.00,NW,309,15.0,30.0,82,-99.99,,,-99.99,,2013-04-07 01:02:00,
2013-04-06 19:12:00,27.0,22.0,-100.00,NW,309,15.0,30.0,82,-99.99,,,-99.99,,2013-04-07 01:12:00,
2013-04-06 19:22:00,27.0,23.0,-100.00,WNW,301,11.0,25.0,84,-99.99,,,-99.99,,2013-04-07 01:22:00,
2013-04-06 19:32:00,27.0,23.0,-100.00,WNW,292,6.0,18.0,85,-99.99,,,-99.99,,2013-04-07 01:32:00,
2013-04-06 19:42:00,27.0,23.0,-100.00,WNW,292,6.0,18.0,85,-99.99,,,-99.99,,2013-04-07 01:42:00,
2013-04-06 19:53:00,26.0,24.0,-100.00,WNW,294,10.0,68.0,91,-99.99,,,-99.99,,2013-04-07 01:53:00,
2013-04-06 20:02:00,26.0,24.0,-100.00,WNW,290,9.0,21.0,92,-99.99,,,-99.99,,2013-04-07 02:02:00,
2013-04-06 20:12:00,26.0,24.0,-100.00,WNW,290,9.0,21.0,92,-99.99,,,-99.99,,2013-04-07 02:12:00,
2013-04-06 20:22:00,26.0,24.0,-100.00,WNW,285,7.0,19.0,91,-99.99,,,-99.99,,2013-04-07 02:22:00,
2013-04-06 20:32:00,26.0,23.0,-100.00,WNW,284,7.0,17.0,90,-99.99,,,-99.99,,2013-04-07 02:32:00,
2013-04-06 20:42:00,26.0,23.0,-100.00,WNW,284,7.0,17.0,90,-99.99,,,-99.99,,2013-04-07 02:42:00,
2013-04-06 20:52:00,26.0,23.0,-100.00,West,281,7.0,19.0,90,-99.99,,,-99.99,,2013-04-07 02:52:00,
2013-04-06 21:02:00,26.0,24.0,-100.00,West,263,6.0,16.0,91,-99.99,,,-99.99,,2013-04-07 03:02:00,
2013-04-06 21:12:00,26.0,24.0,-100.00,West,263,6.0,16.0,91,-99.99,,,-99.99,,2013-04-07 03:12:00,
2013-04-06 21:22:00,26.0,23.0,-100.00,West,270,10.0,21.0,88,-99.99,,,-99.99,,2013-04-07 03:22:00,
2013-04-06 21:33:00,26.0,22.0,-100.00,WSW,257,8.0,25.0,86,-99.99,,,-99.99,,2013-04-07 03:33:00,
2013-04-06 21:43:00,26.0,22.0,-100.00,WSW,257,8.0,25.0,86,-99.99,,,-99.99,,2013-04-07 03:43:00,
2013-04-06 21:54:00,26.0,22.0,-100.00,West,277,9.0,23.0,86,-99.99,,,-99.99,,2013-04-07 03:54:00,
2013-04-06 22:02:00,25.0,22.0,-100.00,West,270,9.0,23.0,87,-99.99,,,-99.99,,2013-04-07 04:02:00,
2013-04-06 22:13:00,25.0,22.0,-100.00,West,270,9.0,23.0,87,-99.99,,,-99.99,,2013-04-07 04:13:00,
2013-04-06 22:23:00,25.0,22.0,-100.00,West,277,11.0,27.0,88,-99.99,,,-99.99,,2013-04-07 04:23:00,
2013-04-06 22:32:00,25.0,22.0,-100.00,West,268,10.0,25.0,87,-99.99,,,-99.99,,2013-04-07 04:32:00,
2013-04-06 22:43:00,25.0,22.0,-100.00,West,268,10.0,25.0,87,-99.99,,,-99.99,,2013-04-07 04:43:00,
2013-04-06 22:53:00,25.0,22.0,-100.00,West,264,7.0,25.0,87,-99.99,,,-99.99,,2013-04-07 04:53:00,
2013-04-06 23:02:00,25.0,22.0,-100.00,West,259,6.0,18.0,87,-99.99,,,-99.99,,2013-04-07 05:02:00,
2013-04-06 23:12:00,25.0,22.0,-100.00,WSW,247,7.0,15.0,88,-99.99,,,-99.99,,2013-04-07 05:12:00,
2013-04-06 23:22:00,25.0,22.0,-100.00,WSW,247,7.0,15.0,88,-99.99,,,-99.99,,2013-04-07 05:22:00,
2013-04-06 23:32:00,25.0,21.0,-100.00,West,268,10.0,28.0,83,-99.99,,,-99.99,,2013-04-07 05:32:00,
2013-04-06 23:42:00,25.0,21.0,-100.00,West,268,10.0,28.0,83,-99.99,,,-99.99,,2013-04-07 05:42:00,
2013-04-06 23:52:00,24.0,20.0,-100.00,West,281,13.0,27.0,83,-99.99,,,-99.99,,2013-04-07 05:52:00,